sensor_id;sensor_type;location;lat;lon;timestamp;temperature;humidity
40454;DHT22;26160;51.858;4.398;2023-09-08T00:02:11;19.50;99.90
40454;DHT22;26160;51.858;4.398;2023-09-08T00:04:38;19.50;99.90
40454;DHT22;26160;51.858;4.398;2023-09-08T00:07:04;19.40;99.90
40454;DHT22;26160;51.858;4.398;2023-09-08T00:09:30;19.40;99.90
40454;DHT22;26160;51.858;4.398;2023-09-08T00:11:56;19.40;99.90
40454;DHT22;26160;51.858;4.398;2023-09-08T00:14:22;19.30;99.90
40454;DHT22;26160;51.858;4.398;2023-09-08T00:16:48;19.30;99.90
40454;DHT22;26160;51.858;4.398;2023-09-08T00:19:14;19.30;99.90
40454;DHT22;26160;51.858;4.398;2023-09-08T00:21:41;19.30;99.90
40454;DHT22;26160;51.858;4.398;2023-09-08T00:24:09;19.20;99.90
40454;DHT22;26160;51.858;4.398;2023-09-08T00:26:35;19.20;99.90
40454;DHT22;26160;51.858;4.398;2023-09-08T00:29:04;19.20;99.90
40454;DHT22;26160;51.858;4.398;2023-09-08T00:31:30;19.20;99.90
40454;DHT22;26160;51.858;4.398;2023-09-08T00:33:56;19.10;99.90
40454;DHT22;26160;51.858;4.398;2023-09-08T00:36:22;19.10;99.90
40454;DHT22;26160;51.858;4.398;2023-09-08T00:38:48;19.00;99.90
40454;DHT22;26160;51.858;4.398;2023-09-08T00:41:15;19.10;99.90
40454;DHT22;26160;51.858;4.398;2023-09-08T00:43:41;19.00;99.90
40454;DHT22;26160;51.858;4.398;2023-09-08T00:46:07;19.00;99.90
40454;DHT22;26160;51.858;4.398;2023-09-08T00:48:34;19.00;99.90
40454;DHT22;26160;51.858;4.398;2023-09-08T00:51:01;18.90;99.90
40454;DHT22;26160;51.858;4.398;2023-09-08T00:53:28;18.90;99.90
40454;DHT22;26160;51.858;4.398;2023-09-08T00:55:54;18.90;99.90
40454;DHT22;26160;51.858;4.398;2023-09-08T00:58:21;18.90;99.90
40454;DHT22;26160;51.858;4.398;2023-09-08T01:03:24;18.80;99.90
40454;DHT22;26160;51.858;4.398;2023-09-08T01:05:51;18.80;99.90
40454;DHT22;26160;51.858;4.398;2023-09-08T01:08:18;18.80;99.90
40454;DHT22;26160;51.858;4.398;2023-09-08T01:10:45;18.80;99.90
40454;DHT22;26160;51.858;4.398;2023-09-08T01:13:11;18.70;99.90
40454;DHT22;26160;51.858;4.398;2023-09-08T01:15:38;18.70;99.90
40454;DHT22;26160;51.858;4.398;2023-09-08T01:18:04;18.70;99.90
40454;DHT22;26160;51.858;4.398;2023-09-08T01:26:07;18.60;99.90
40454;DHT22;26160;51.858;4.398;2023-09-08T01:28:35;18.50;99.90
40454;DHT22;26160;51.858;4.398;2023-09-08T01:31:01;18.60;99.90
40454;DHT22;26160;51.858;4.398;2023-09-08T01:33:28;18.60;99.90
40454;DHT22;26160;51.858;4.398;2023-09-08T01:35:54;18.50;99.90
40454;DHT22;26160;51.858;4.398;2023-09-08T01:38:21;18.50;99.90
40454;DHT22;26160;51.858;4.398;2023-09-08T01:40:47;18.50;99.90
40454;DHT22;26160;51.858;4.398;2023-09-08T01:43:13;18.50;99.90
40454;DHT22;26160;51.858;4.398;2023-09-08T01:45:40;18.40;99.90
40454;DHT22;26160;51.858;4.398;2023-09-08T01:48:06;18.40;99.90
40454;DHT22;26160;51.858;4.398;2023-09-08T01:50:32;18.40;99.90
40454;DHT22;26160;51.858;4.398;2023-09-08T01:52:59;18.40;99.90
40454;DHT22;26160;51.858;4.398;2023-09-08T01:55:25;18.40;99.90
40454;DHT22;26160;51.858;4.398;2023-09-08T01:57:51;18.40;99.90
40454;DHT22;26160;51.858;4.398;2023-09-08T02:00:18;18.30;99.90
40454;DHT22;26160;51.858;4.398;2023-09-08T02:02:44;18.30;99.90
40454;DHT22;26160;51.858;4.398;2023-09-08T02:05:10;18.30;99.90
40454;DHT22;26160;51.858;4.398;2023-09-08T02:07:36;18.30;99.90
40454;DHT22;26160;51.858;4.398;2023-09-08T02:10:02;18.30;99.90
40454;DHT22;26160;51.858;4.398;2023-09-08T02:12:28;18.30;99.90
40454;DHT22;26160;51.858;4.398;2023-09-08T02:14:55;18.20;99.90
40454;DHT22;26160;51.858;4.398;2023-09-08T02:17:21;18.20;99.90
40454;DHT22;26160;51.858;4.398;2023-09-08T02:19:47;18.20;99.90
40454;DHT22;26160;51.858;4.398;2023-09-08T02:22:13;18.20;99.90
40454;DHT22;26160;51.858;4.398;2023-09-08T02:24:39;18.10;99.90
40454;DHT22;26160;51.858;4.398;2023-09-08T02:27:06;18.10;99.90
40454;DHT22;26160;51.858;4.398;2023-09-08T02:29:32;18.10;99.90
40454;DHT22;26160;51.858;4.398;2023-09-08T02:31:58;18.10;99.90
40454;DHT22;26160;51.858;4.398;2023-09-08T02:34:24;18.10;99.90
40454;DHT22;26160;51.858;4.398;2023-09-08T02:36:50;18.10;99.90
40454;DHT22;26160;51.858;4.398;2023-09-08T02:39:16;18.10;99.90
40454;DHT22;26160;51.858;4.398;2023-09-08T02:41:43;18.10;99.90
40454;DHT22;26160;51.858;4.398;2023-09-08T02:44:09;18.10;99.90
40454;DHT22;26160;51.858;4.398;2023-09-08T02:46:35;18.10;99.90
40454;DHT22;26160;51.858;4.398;2023-09-08T02:49:01;18.10;99.90
40454;DHT22;26160;51.858;4.398;2023-09-08T02:51:27;18.10;99.90
40454;DHT22;26160;51.858;4.398;2023-09-08T02:53:53;18.10;99.90
40454;DHT22;26160;51.858;4.398;2023-09-08T02:56:19;18.10;99.90
40454;DHT22;26160;51.858;4.398;2023-09-08T02:58:45;18.10;99.90
40454;DHT22;26160;51.858;4.398;2023-09-08T03:01:15;18.00;99.90
40454;DHT22;26160;51.858;4.398;2023-09-08T03:03:42;18.00;99.90
40454;DHT22;26160;51.858;4.398;2023-09-08T03:06:09;18.00;99.90
40454;DHT22;26160;51.858;4.398;2023-09-08T03:08:36;18.00;99.90
40454;DHT22;26160;51.858;4.398;2023-09-08T03:11:03;18.00;99.90
40454;DHT22;26160;51.858;4.398;2023-09-08T03:13:30;18.00;99.90
40454;DHT22;26160;51.858;4.398;2023-09-08T03:15:57;18.00;99.90
40454;DHT22;26160;51.858;4.398;2023-09-08T03:18:23;17.90;99.90
40454;DHT22;26160;51.858;4.398;2023-09-08T03:20:50;17.90;99.90
40454;DHT22;26160;51.858;4.398;2023-09-08T03:23:16;17.90;99.90
40454;DHT22;26160;51.858;4.398;2023-09-08T03:25:43;17.90;99.90
40454;DHT22;26160;51.858;4.398;2023-09-08T03:28:09;17.90;99.90
40454;DHT22;26160;51.858;4.398;2023-09-08T03:30:35;17.90;99.90
40454;DHT22;26160;51.858;4.398;2023-09-08T03:33:01;17.90;99.90
40454;DHT22;26160;51.858;4.398;2023-09-08T03:35:28;17.90;99.90
40454;DHT22;26160;51.858;4.398;2023-09-08T03:37:54;17.80;99.90
40454;DHT22;26160;51.858;4.398;2023-09-08T03:40:20;17.80;99.90
40454;DHT22;26160;51.858;4.398;2023-09-08T03:42:46;17.80;99.90
40454;DHT22;26160;51.858;4.398;2023-09-08T03:45:12;17.80;99.90
40454;DHT22;26160;51.858;4.398;2023-09-08T03:47:38;17.80;99.90
40454;DHT22;26160;51.858;4.398;2023-09-08T03:50:05;17.80;99.90
40454;DHT22;26160;51.858;4.398;2023-09-08T03:52:32;17.80;99.90
40454;DHT22;26160;51.858;4.398;2023-09-08T03:54:58;17.80;99.90
40454;DHT22;26160;51.858;4.398;2023-09-08T03:57:24;17.80;99.90
40454;DHT22;26160;51.858;4.398;2023-09-08T03:59:50;17.70;99.90
40454;DHT22;26160;51.858;4.398;2023-09-08T04:02:16;17.80;99.90
40454;DHT22;26160;51.858;4.398;2023-09-08T04:04:42;17.80;99.90
40454;DHT22;26160;51.858;4.398;2023-09-08T04:07:08;17.80;99.90
40454;DHT22;26160;51.858;4.398;2023-09-08T04:09:35;17.70;99.90
40454;DHT22;26160;51.858;4.398;2023-09-08T04:12:01;17.70;99.90
40454;DHT22;26160;51.858;4.398;2023-09-08T04:14:27;17.70;99.90
40454;DHT22;26160;51.858;4.398;2023-09-08T04:16:54;17.70;99.90
40454;DHT22;26160;51.858;4.398;2023-09-08T04:19:20;17.60;99.90
40454;DHT22;26160;51.858;4.398;2023-09-08T04:21:46;17.60;99.90
40454;DHT22;26160;51.858;4.398;2023-09-08T04:24:12;17.60;99.90
40454;DHT22;26160;51.858;4.398;2023-09-08T04:26:38;17.60;99.90
40454;DHT22;26160;51.858;4.398;2023-09-08T04:29:05;17.60;99.90
40454;DHT22;26160;51.858;4.398;2023-09-08T04:31:31;17.50;99.90
40454;DHT22;26160;51.858;4.398;2023-09-08T04:33:57;17.50;99.90
40454;DHT22;26160;51.858;4.398;2023-09-08T04:36:23;17.50;99.90
40454;DHT22;26160;51.858;4.398;2023-09-08T04:38:49;17.50;99.90
40454;DHT22;26160;51.858;4.398;2023-09-08T04:41:15;17.50;99.90
40454;DHT22;26160;51.858;4.398;2023-09-08T04:43:41;17.50;99.90
40454;DHT22;26160;51.858;4.398;2023-09-08T04:46:08;17.40;99.90
40454;DHT22;26160;51.858;4.398;2023-09-08T04:48:34;17.40;99.90
40454;DHT22;26160;51.858;4.398;2023-09-08T04:51:00;17.40;99.90
40454;DHT22;26160;51.858;4.398;2023-09-08T04:53:26;17.40;99.90
40454;DHT22;26160;51.858;4.398;2023-09-08T04:55:52;17.40;99.90
40454;DHT22;26160;51.858;4.398;2023-09-08T04:58:24;17.40;99.90
40454;DHT22;26160;51.858;4.398;2023-09-08T05:01:24;17.40;99.90
40454;DHT22;26160;51.858;4.398;2023-09-08T05:04:04;17.40;99.90
40454;DHT22;26160;51.858;4.398;2023-09-08T05:06:32;17.40;99.90
40454;DHT22;26160;51.858;4.398;2023-09-08T05:08:59;17.40;99.90
40454;DHT22;26160;51.858;4.398;2023-09-08T05:11:26;17.30;99.90
40454;DHT22;26160;51.858;4.398;2023-09-08T05:13:52;17.30;99.90
40454;DHT22;26160;51.858;4.398;2023-09-08T05:16:18;17.30;99.90
40454;DHT22;26160;51.858;4.398;2023-09-08T05:18:51;17.30;99.90
40454;DHT22;26160;51.858;4.398;2023-09-08T05:21:17;17.30;99.90
40454;DHT22;26160;51.858;4.398;2023-09-08T05:23:44;17.30;99.90
40454;DHT22;26160;51.858;4.398;2023-09-08T05:26:10;17.30;99.90
40454;DHT22;26160;51.858;4.398;2023-09-08T05:28:36;17.30;99.90
40454;DHT22;26160;51.858;4.398;2023-09-08T05:31:02;17.30;99.90
40454;DHT22;26160;51.858;4.398;2023-09-08T05:33:30;17.30;99.90
40454;DHT22;26160;51.858;4.398;2023-09-08T05:35:56;17.30;99.90
40454;DHT22;26160;51.858;4.398;2023-09-08T05:38:22;17.30;99.90
40454;DHT22;26160;51.858;4.398;2023-09-08T05:40:50;17.30;99.90
40454;DHT22;26160;51.858;4.398;2023-09-08T05:43:16;17.40;99.90
40454;DHT22;26160;51.858;4.398;2023-09-08T05:45:43;17.50;99.90
40454;DHT22;26160;51.858;4.398;2023-09-08T05:48:10;17.50;99.90
40454;DHT22;26160;51.858;4.398;2023-09-08T05:50:36;17.50;99.90
40454;DHT22;26160;51.858;4.398;2023-09-08T05:53:03;17.50;99.90
40454;DHT22;26160;51.858;4.398;2023-09-08T05:55:29;17.50;99.90
40454;DHT22;26160;51.858;4.398;2023-09-08T05:57:55;17.50;99.90
40454;DHT22;26160;51.858;4.398;2023-09-08T06:00:22;17.50;99.90
40454;DHT22;26160;51.858;4.398;2023-09-08T06:02:48;17.50;99.90
40454;DHT22;26160;51.858;4.398;2023-09-08T06:05:14;17.60;99.90
40454;DHT22;26160;51.858;4.398;2023-09-08T06:07:40;17.60;99.90
40454;DHT22;26160;51.858;4.398;2023-09-08T06:10:07;17.60;99.90
40454;DHT22;26160;51.858;4.398;2023-09-08T06:12:33;17.70;99.90
40454;DHT22;26160;51.858;4.398;2023-09-08T06:15:01;17.70;99.90
40454;DHT22;26160;51.858;4.398;2023-09-08T06:17:27;17.80;99.90
40454;DHT22;26160;51.858;4.398;2023-09-08T06:19:53;17.80;99.90
40454;DHT22;26160;51.858;4.398;2023-09-08T06:22:19;17.90;99.90
40454;DHT22;26160;51.858;4.398;2023-09-08T06:24:45;17.90;99.90
40454;DHT22;26160;51.858;4.398;2023-09-08T06:27:11;18.00;99.90
40454;DHT22;26160;51.858;4.398;2023-09-08T06:29:39;18.10;99.90
40454;DHT22;26160;51.858;4.398;2023-09-08T06:32:11;18.20;99.90
40454;DHT22;26160;51.858;4.398;2023-09-08T06:34:38;18.20;99.90
40454;DHT22;26160;51.858;4.398;2023-09-08T06:37:04;18.30;99.90
40454;DHT22;26160;51.858;4.398;2023-09-08T06:39:30;18.40;99.90
40454;DHT22;26160;51.858;4.398;2023-09-08T06:41:56;18.50;99.90
40454;DHT22;26160;51.858;4.398;2023-09-08T06:44:23;18.60;99.90
40454;DHT22;26160;51.858;4.398;2023-09-08T06:46:51;18.70;99.90
40454;DHT22;26160;51.858;4.398;2023-09-08T06:49:17;18.90;99.90
40454;DHT22;26160;51.858;4.398;2023-09-08T06:51:43;19.00;99.90
40454;DHT22;26160;51.858;4.398;2023-09-08T06:54:09;19.10;99.90
40454;DHT22;26160;51.858;4.398;2023-09-08T06:56:36;19.20;99.90
40454;DHT22;26160;51.858;4.398;2023-09-08T06:59:03;19.40;99.90
40454;DHT22;26160;51.858;4.398;2023-09-08T07:01:32;19.50;99.90
40454;DHT22;26160;51.858;4.398;2023-09-08T07:03:58;19.50;99.90
40454;DHT22;26160;51.858;4.398;2023-09-08T07:06:24;19.60;99.90
40454;DHT22;26160;51.858;4.398;2023-09-08T07:08:51;19.70;99.90
40454;DHT22;26160;51.858;4.398;2023-09-08T07:11:17;19.90;99.90
40454;DHT22;26160;51.858;4.398;2023-09-08T07:13:43;20.00;99.90
40454;DHT22;26160;51.858;4.398;2023-09-08T07:16:10;20.10;99.90
40454;DHT22;26160;51.858;4.398;2023-09-08T07:18:36;20.20;99.90
40454;DHT22;26160;51.858;4.398;2023-09-08T07:21:06;20.30;99.90
40454;DHT22;26160;51.858;4.398;2023-09-08T07:23:32;20.40;99.90
40454;DHT22;26160;51.858;4.398;2023-09-08T07:25:59;20.40;99.90
40454;DHT22;26160;51.858;4.398;2023-09-08T07:28:25;20.60;99.90
40454;DHT22;26160;51.858;4.398;2023-09-08T07:30:51;20.70;99.90
40454;DHT22;26160;51.858;4.398;2023-09-08T07:33:17;20.70;99.90
40454;DHT22;26160;51.858;4.398;2023-09-08T07:35:45;20.80;99.90
40454;DHT22;26160;51.858;4.398;2023-09-08T07:38:11;20.90;99.90
40454;DHT22;26160;51.858;4.398;2023-09-08T07:40:38;21.10;99.90
40454;DHT22;26160;51.858;4.398;2023-09-08T07:43:04;21.20;99.90
40454;DHT22;26160;51.858;4.398;2023-09-08T07:45:30;21.30;99.90
40454;DHT22;26160;51.858;4.398;2023-09-08T07:47:57;21.40;99.90
40454;DHT22;26160;51.858;4.398;2023-09-08T07:50:26;21.40;99.90
40454;DHT22;26160;51.858;4.398;2023-09-08T07:52:54;21.60;99.90
40454;DHT22;26160;51.858;4.398;2023-09-08T07:55:21;21.70;99.90
40454;DHT22;26160;51.858;4.398;2023-09-08T07:57:54;21.90;99.90
40454;DHT22;26160;51.858;4.398;2023-09-08T08:00:20;22.10;99.90
40454;DHT22;26160;51.858;4.398;2023-09-08T08:02:48;22.20;99.90
40454;DHT22;26160;51.858;4.398;2023-09-08T08:05:15;22.30;99.90
40454;DHT22;26160;51.858;4.398;2023-09-08T08:07:42;22.40;99.90
40454;DHT22;26160;51.858;4.398;2023-09-08T08:10:10;22.50;99.90
40454;DHT22;26160;51.858;4.398;2023-09-08T08:12:37;22.70;99.90
40454;DHT22;26160;51.858;4.398;2023-09-08T08:15:04;22.80;99.90
40454;DHT22;26160;51.858;4.398;2023-09-08T08:17:32;22.90;99.90
40454;DHT22;26160;51.858;4.398;2023-09-08T08:19:59;23.00;99.90
40454;DHT22;26160;51.858;4.398;2023-09-08T08:26:09;23.30;99.90
40454;DHT22;26160;51.858;4.398;2023-09-08T08:28:35;23.50;99.90
40454;DHT22;26160;51.858;4.398;2023-09-08T08:31:01;23.80;99.90
40454;DHT22;26160;51.858;4.398;2023-09-08T08:33:28;24.00;99.90
40454;DHT22;26160;51.858;4.398;2023-09-08T08:35:55;24.20;99.90
40454;DHT22;26160;51.858;4.398;2023-09-08T08:38:21;24.40;99.90
40454;DHT22;26160;51.858;4.398;2023-09-08T08:40:47;24.60;99.90
40454;DHT22;26160;51.858;4.398;2023-09-08T08:43:13;24.70;99.90
40454;DHT22;26160;51.858;4.398;2023-09-08T08:45:42;24.90;99.90
40454;DHT22;26160;51.858;4.398;2023-09-08T08:48:09;25.00;99.90
40454;DHT22;26160;51.858;4.398;2023-09-08T08:50:38;25.10;99.90
40454;DHT22;26160;51.858;4.398;2023-09-08T08:53:06;25.30;99.90
40454;DHT22;26160;51.858;4.398;2023-09-08T08:55:34;25.30;99.90
40454;DHT22;26160;51.858;4.398;2023-09-08T08:58:04;25.40;99.90
40454;DHT22;26160;51.858;4.398;2023-09-08T09:00:35;25.50;99.90
40454;DHT22;26160;51.858;4.398;2023-09-08T09:03:04;25.60;99.90
40454;DHT22;26160;51.858;4.398;2023-09-08T09:05:33;25.80;99.90
40454;DHT22;26160;51.858;4.398;2023-09-08T09:08:01;25.90;99.90
40454;DHT22;26160;51.858;4.398;2023-09-08T09:10:31;25.90;99.00
40454;DHT22;26160;51.858;4.398;2023-09-08T09:12:57;25.90;99.90
40454;DHT22;26160;51.858;4.398;2023-09-08T09:15:31;25.90;99.90
40454;DHT22;26160;51.858;4.398;2023-09-08T09:18:05;26.10;99.90
40454;DHT22;26160;51.858;4.398;2023-09-08T09:20:32;26.30;99.90
40454;DHT22;26160;51.858;4.398;2023-09-08T09:22:58;26.50;99.90
40454;DHT22;26160;51.858;4.398;2023-09-08T09:25:28;26.40;95.30
40454;DHT22;26160;51.858;4.398;2023-09-08T09:27:56;26.20;93.70
40454;DHT22;26160;51.858;4.398;2023-09-08T09:30:23;26.20;95.60
40454;DHT22;26160;51.858;4.398;2023-09-08T09:33:00;26.30;99.90
40454;DHT22;26160;51.858;4.398;2023-09-08T09:35:45;26.50;99.90
40454;DHT22;26160;51.858;4.398;2023-09-08T09:38:12;26.70;96.60
40454;DHT22;26160;51.858;4.398;2023-09-08T09:40:39;26.90;74.80
40454;DHT22;26160;51.858;4.398;2023-09-08T09:43:06;26.90;81.70
40454;DHT22;26160;51.858;4.398;2023-09-08T09:45:36;27.10;95.90
40454;DHT22;26160;51.858;4.398;2023-09-08T09:48:06;27.30;73.90
40454;DHT22;26160;51.858;4.398;2023-09-08T09:50:35;27.40;90.20
40454;DHT22;26160;51.858;4.398;2023-09-08T09:53:07;27.40;84.80
40454;DHT22;26160;51.858;4.398;2023-09-08T09:55:36;27.50;73.80
40454;DHT22;26160;51.858;4.398;2023-09-08T09:58:05;27.60;59.20
40454;DHT22;26160;51.858;4.398;2023-09-08T10:00:32;27.80;83.40
40454;DHT22;26160;51.858;4.398;2023-09-08T10:02:59;28.00;99.90
40454;DHT22;26160;51.858;4.398;2023-09-08T10:05:26;28.00;95.70
40454;DHT22;26160;51.858;4.398;2023-09-08T10:07:53;28.20;86.70
40454;DHT22;26160;51.858;4.398;2023-09-08T10:10:20;27.90;54.90
40454;DHT22;26160;51.858;4.398;2023-09-08T10:12:53;27.90;56.70
40454;DHT22;26160;51.858;4.398;2023-09-08T10:15:22;28.00;61.10
40454;DHT22;26160;51.858;4.398;2023-09-08T10:17:59;28.30;97.70
40454;DHT22;26160;51.858;4.398;2023-09-08T10:20:30;28.40;60.30
40454;DHT22;26160;51.858;4.398;2023-09-08T10:23:23;28.30;89.40
40454;DHT22;26160;51.858;4.398;2023-09-08T10:25:55;28.50;79.20
40454;DHT22;26160;51.858;4.398;2023-09-08T10:28:23;28.70;35.10
40454;DHT22;26160;51.858;4.398;2023-09-08T10:30:50;28.30;26.50
40454;DHT22;26160;51.858;4.398;2023-09-08T10:33:17;27.80;30.00
40454;DHT22;26160;51.858;4.398;2023-09-08T10:35:44;28.00;40.40
40454;DHT22;26160;51.858;4.398;2023-09-08T10:38:31;28.40;72.00
40454;DHT22;26160;51.858;4.398;2023-09-08T10:43:55;28.20;16.30
40454;DHT22;26160;51.858;4.398;2023-09-08T10:46:27;28.40;20.00
40454;DHT22;26160;51.858;4.398;2023-09-08T10:48:55;28.70;58.20
40454;DHT22;26160;51.858;4.398;2023-09-08T10:51:36;29.00;15.00
40454;DHT22;26160;51.858;4.398;2023-09-08T10:54:03;28.90;1.00
40454;DHT22;26160;51.858;4.398;2023-09-08T10:56:54;28.70;1.00
40454;DHT22;26160;51.858;4.398;2023-09-08T10:59:27;29.10;39.20
40454;DHT22;26160;51.858;4.398;2023-09-08T11:01:54;29.50;21.20
40454;DHT22;26160;51.858;4.398;2023-09-08T11:04:21;29.60;1.00
40454;DHT22;26160;51.858;4.398;2023-09-08T11:06:51;29.80;21.00
40454;DHT22;26160;51.858;4.398;2023-09-08T11:09:18;29.70;1.00
40454;DHT22;26160;51.858;4.398;2023-09-08T11:11:45;29.80;39.90
40454;DHT22;26160;51.858;4.398;2023-09-08T11:14:11;29.60;1.00
40454;DHT22;26160;51.858;4.398;2023-09-08T11:16:41;29.40;1.00
40454;DHT22;26160;51.858;4.398;2023-09-08T11:19:08;29.40;32.20
40454;DHT22;26160;51.858;4.398;2023-09-08T11:21:35;29.50;1.00
40454;DHT22;26160;51.858;4.398;2023-09-08T11:24:05;29.70;1.00
40454;DHT22;26160;51.858;4.398;2023-09-08T11:26:35;29.70;5.20
40454;DHT22;26160;51.858;4.398;2023-09-08T11:29:01;29.80;22.40
40454;DHT22;26160;51.858;4.398;2023-09-08T11:31:28;29.90;1.00
40454;DHT22;26160;51.858;4.398;2023-09-08T11:33:55;30.00;1.00
40454;DHT22;26160;51.858;4.398;2023-09-08T11:36:21;30.00;19.50
40454;DHT22;26160;51.858;4.398;2023-09-08T11:38:47;30.10;1.00
40454;DHT22;26160;51.858;4.398;2023-09-08T11:41:13;30.10;1.00
40454;DHT22;26160;51.858;4.398;2023-09-08T11:43:39;29.90;1.00
40454;DHT22;26160;51.858;4.398;2023-09-08T11:46:06;30.10;1.00
40454;DHT22;26160;51.858;4.398;2023-09-08T11:48:32;30.10;1.00
40454;DHT22;26160;51.858;4.398;2023-09-08T11:50:59;30.20;1.00
40454;DHT22;26160;51.858;4.398;2023-09-08T11:53:25;30.40;1.00
40454;DHT22;26160;51.858;4.398;2023-09-08T11:55:53;30.50;1.00
40454;DHT22;26160;51.858;4.398;2023-09-08T11:58:20;30.00;1.00
40454;DHT22;26160;51.858;4.398;2023-09-08T12:00:46;30.00;1.00
40454;DHT22;26160;51.858;4.398;2023-09-08T12:03:18;30.20;1.00
40454;DHT22;26160;51.858;4.398;2023-09-08T12:05:49;30.30;1.00
40454;DHT22;26160;51.858;4.398;2023-09-08T12:08:16;30.30;1.00
40454;DHT22;26160;51.858;4.398;2023-09-08T12:10:43;30.40;1.00
40454;DHT22;26160;51.858;4.398;2023-09-08T12:13:09;30.30;1.00
40454;DHT22;26160;51.858;4.398;2023-09-08T12:15:38;29.90;1.00
40454;DHT22;26160;51.858;4.398;2023-09-08T12:18:12;30.00;1.00
40454;DHT22;26160;51.858;4.398;2023-09-08T12:20:39;30.10;1.00
40454;DHT22;26160;51.858;4.398;2023-09-08T12:23:18;30.40;1.00
40454;DHT22;26160;51.858;4.398;2023-09-08T12:25:52;30.40;1.00
40454;DHT22;26160;51.858;4.398;2023-09-08T12:28:21;30.60;1.00
40454;DHT22;26160;51.858;4.398;2023-09-08T12:30:51;30.40;1.00
40454;DHT22;26160;51.858;4.398;2023-09-08T12:33:19;30.10;1.00
40454;DHT22;26160;51.858;4.398;2023-09-08T12:35:46;30.20;1.00
40454;DHT22;26160;51.858;4.398;2023-09-08T12:38:17;30.20;1.00
40454;DHT22;26160;51.858;4.398;2023-09-08T12:40:44;30.50;1.00
40454;DHT22;26160;51.858;4.398;2023-09-08T12:43:10;30.30;1.00
40454;DHT22;26160;51.858;4.398;2023-09-08T12:45:36;30.20;1.00
40454;DHT22;26160;51.858;4.398;2023-09-08T12:48:05;30.20;1.00
40454;DHT22;26160;51.858;4.398;2023-09-08T12:50:32;30.10;1.00
40454;DHT22;26160;51.858;4.398;2023-09-08T12:52:58;30.10;1.00
40454;DHT22;26160;51.858;4.398;2023-09-08T12:55:25;30.30;1.00
40454;DHT22;26160;51.858;4.398;2023-09-08T12:57:51;30.30;1.00
40454;DHT22;26160;51.858;4.398;2023-09-08T13:00:21;30.30;1.00
40454;DHT22;26160;51.858;4.398;2023-09-08T13:02:49;30.40;1.00
40454;DHT22;26160;51.858;4.398;2023-09-08T13:05:15;30.20;1.00
40454;DHT22;26160;51.858;4.398;2023-09-08T13:07:41;30.20;1.00
40454;DHT22;26160;51.858;4.398;2023-09-08T13:10:08;30.20;1.00
40454;DHT22;26160;51.858;4.398;2023-09-08T13:12:34;30.30;1.00
40454;DHT22;26160;51.858;4.398;2023-09-08T13:15:00;30.20;1.00
40454;DHT22;26160;51.858;4.398;2023-09-08T13:17:26;30.10;1.00
40454;DHT22;26160;51.858;4.398;2023-09-08T13:19:52;30.30;1.00
40454;DHT22;26160;51.858;4.398;2023-09-08T13:22:19;30.30;1.00
40454;DHT22;26160;51.858;4.398;2023-09-08T13:24:45;30.10;1.00
40454;DHT22;26160;51.858;4.398;2023-09-08T13:27:11;30.10;1.00
40454;DHT22;26160;51.858;4.398;2023-09-08T13:29:38;30.20;1.00
40454;DHT22;26160;51.858;4.398;2023-09-08T13:32:04;30.40;1.00
40454;DHT22;26160;51.858;4.398;2023-09-08T13:34:34;30.50;1.00
40454;DHT22;26160;51.858;4.398;2023-09-08T13:37:01;30.60;1.00
40454;DHT22;26160;51.858;4.398;2023-09-08T13:39:28;30.70;1.00
40454;DHT22;26160;51.858;4.398;2023-09-08T13:41:55;30.70;1.00
40454;DHT22;26160;51.858;4.398;2023-09-08T13:44:23;30.60;1.00
40454;DHT22;26160;51.858;4.398;2023-09-08T13:46:50;30.70;1.00
40454;DHT22;26160;51.858;4.398;2023-09-08T13:49:17;30.60;1.00
40454;DHT22;26160;51.858;4.398;2023-09-08T13:51:44;30.60;1.00
40454;DHT22;26160;51.858;4.398;2023-09-08T13:54:13;30.60;1.00
40454;DHT22;26160;51.858;4.398;2023-09-08T13:56:40;30.50;1.00
40454;DHT22;26160;51.858;4.398;2023-09-08T13:59:07;30.40;1.00
40454;DHT22;26160;51.858;4.398;2023-09-08T14:01:34;30.30;1.00
40454;DHT22;26160;51.858;4.398;2023-09-08T14:04:01;30.40;1.00
40454;DHT22;26160;51.858;4.398;2023-09-08T14:06:28;30.40;1.00
40454;DHT22;26160;51.858;4.398;2023-09-08T14:08:54;30.40;1.00
40454;DHT22;26160;51.858;4.398;2023-09-08T14:11:22;30.40;1.00
40454;DHT22;26160;51.858;4.398;2023-09-08T14:13:48;30.20;1.00
40454;DHT22;26160;51.858;4.398;2023-09-08T14:16:16;30.10;1.00
40454;DHT22;26160;51.858;4.398;2023-09-08T14:18:43;30.00;1.00
40454;DHT22;26160;51.858;4.398;2023-09-08T14:21:09;29.90;1.00
40454;DHT22;26160;51.858;4.398;2023-09-08T14:23:35;30.00;1.00
40454;DHT22;26160;51.858;4.398;2023-09-08T14:26:03;30.00;1.00
40454;DHT22;26160;51.858;4.398;2023-09-08T14:28:29;29.90;1.00
40454;DHT22;26160;51.858;4.398;2023-09-08T14:30:58;29.90;1.00
40454;DHT22;26160;51.858;4.398;2023-09-08T14:33:25;29.80;1.00
40454;DHT22;26160;51.858;4.398;2023-09-08T14:35:51;29.80;1.00
40454;DHT22;26160;51.858;4.398;2023-09-08T14:38:18;29.70;1.00
40454;DHT22;26160;51.858;4.398;2023-09-08T14:40:44;29.80;1.00
40454;DHT22;26160;51.858;4.398;2023-09-08T14:43:17;29.80;1.00
40454;DHT22;26160;51.858;4.398;2023-09-08T14:45:43;29.90;1.00
40454;DHT22;26160;51.858;4.398;2023-09-08T14:48:09;29.90;1.00
40454;DHT22;26160;51.858;4.398;2023-09-08T14:50:36;30.00;1.00
40454;DHT22;26160;51.858;4.398;2023-09-08T14:53:02;29.80;1.00
40454;DHT22;26160;51.858;4.398;2023-09-08T14:55:28;29.70;1.00
40454;DHT22;26160;51.858;4.398;2023-09-08T14:57:54;29.60;1.00
40454;DHT22;26160;51.858;4.398;2023-09-08T15:00:21;29.60;1.00
40454;DHT22;26160;51.858;4.398;2023-09-08T15:02:47;29.70;1.00
40454;DHT22;26160;51.858;4.398;2023-09-08T15:05:13;29.60;1.00
40454;DHT22;26160;51.858;4.398;2023-09-08T15:07:39;29.60;1.00
40454;DHT22;26160;51.858;4.398;2023-09-08T15:10:06;29.50;1.00
40454;DHT22;26160;51.858;4.398;2023-09-08T15:12:32;29.50;1.00
40454;DHT22;26160;51.858;4.398;2023-09-08T15:14:58;29.50;1.00
40454;DHT22;26160;51.858;4.398;2023-09-08T15:17:34;29.60;1.00
40454;DHT22;26160;51.858;4.398;2023-09-08T15:20:06;29.60;1.00
40454;DHT22;26160;51.858;4.398;2023-09-08T15:22:40;29.60;1.00
40454;DHT22;26160;51.858;4.398;2023-09-08T15:25:09;29.40;1.00
40454;DHT22;26160;51.858;4.398;2023-09-08T15:27:36;29.40;1.00
40454;DHT22;26160;51.858;4.398;2023-09-08T15:30:05;29.40;1.00
40454;DHT22;26160;51.858;4.398;2023-09-08T15:32:34;29.30;1.00
40454;DHT22;26160;51.858;4.398;2023-09-08T15:35:07;29.10;1.00
40454;DHT22;26160;51.858;4.398;2023-09-08T15:37:33;29.00;1.00
40454;DHT22;26160;51.858;4.398;2023-09-08T15:40:01;29.00;1.00
40454;DHT22;26160;51.858;4.398;2023-09-08T15:42:40;29.00;1.00
40454;DHT22;26160;51.858;4.398;2023-09-08T15:45:15;29.10;1.00
40454;DHT22;26160;51.858;4.398;2023-09-08T15:47:41;29.00;1.00
40454;DHT22;26160;51.858;4.398;2023-09-08T15:50:07;29.00;1.00
40454;DHT22;26160;51.858;4.398;2023-09-08T15:52:35;29.00;1.00